sensor_id;sensor_type;location;lat;lon;timestamp;pressure;altitude;pressure_sealevel;temperature;humidity
18167;BME280;9208;42.688;23.404;2023-01-28T00:01:13;94840.00;;;3.52;100.00
18167;BME280;9208;42.688;23.404;2023-01-28T00:03:39;94845.09;;;3.50;100.00
18167;BME280;9208;42.688;23.404;2023-01-28T00:06:13;94844.06;;;3.57;100.00
18167;BME280;9208;42.688;23.404;2023-01-28T00:08:39;94852.19;;;3.57;100.00
18167;BME280;9208;42.688;23.404;2023-01-28T00:11:06;94854.47;;;3.58;100.00
18167;BME280;9208;42.688;23.404;2023-01-28T00:13:33;94859.44;;;3.60;100.00
18167;BME280;9208;42.688;23.404;2023-01-28T00:16:02;94861.56;;;3.65;100.00
18167;BME280;9208;42.688;23.404;2023-01-28T00:18:30;94867.56;;;3.60;100.00
18167;BME280;9208;42.688;23.404;2023-01-28T00:21:07;94868.91;;;3.55;100.00
18167;BME280;9208;42.688;23.404;2023-01-28T00:23:35;94870.41;;;3.56;100.00
18167;BME280;9208;42.688;23.404;2023-01-28T00:26:03;94871.16;;;3.57;100.00
18167;BME280;9208;42.688;23.404;2023-01-28T00:28:29;94871.31;;;3.53;100.00
18167;BME280;9208;42.688;23.404;2023-01-28T00:30:55;94877.31;;;3.48;100.00
18167;BME280;9208;42.688;23.404;2023-01-28T00:33:21;94877.44;;;3.45;100.00
18167;BME280;9208;42.688;23.404;2023-01-28T00:35:46;94880.47;;;3.47;100.00
18167;BME280;9208;42.688;23.404;2023-01-28T00:38:13;94875.03;;;3.47;100.00
18167;BME280;9208;42.688;23.404;2023-01-28T00:40:38;94872.19;;;3.50;100.00
18167;BME280;9208;42.688;23.404;2023-01-28T00:43:04;94878.19;;;3.45;100.00
18167;BME280;9208;42.688;23.404;2023-01-28T00:45:29;94881.09;;;3.51;100.00
18167;BME280;9208;42.688;23.404;2023-01-28T00:47:55;94880.59;;;3.43;100.00
18167;BME280;9208;42.688;23.404;2023-01-28T00:50:20;94888.91;;;3.49;100.00
18167;BME280;9208;42.688;23.404;2023-01-28T00:52:47;94889.66;;;3.49;100.00
18167;BME280;9208;42.688;23.404;2023-01-28T00:55:13;94881.91;;;3.39;100.00
18167;BME280;9208;42.688;23.404;2023-01-28T00:57:39;94877.56;;;3.41;100.00
18167;BME280;9208;42.688;23.404;2023-01-28T01:00:05;94882.53;;;3.43;100.00
18167;BME280;9208;42.688;23.404;2023-01-28T01:02:31;94887.34;;;3.39;100.00
18167;BME280;9208;42.688;23.404;2023-01-28T01:05:00;94891.44;;;3.43;100.00
18167;BME280;9208;42.688;23.404;2023-01-28T01:07:28;94885.69;;;3.41;100.00
18167;BME280;9208;42.688;23.404;2023-01-28T01:10:00;94893.53;;;3.39;100.00
18167;BME280;9208;42.688;23.404;2023-01-28T01:12:26;94889.16;;;3.42;100.00
18167;BME280;9208;42.688;23.404;2023-01-28T01:14:51;94890.19;;;3.35;100.00
18167;BME280;9208;42.688;23.404;2023-01-28T01:17:17;94890.50;;;3.37;100.00
18167;BME280;9208;42.688;23.404;2023-01-28T01:19:43;94891.06;;;3.32;100.00
18167;BME280;9208;42.688;23.404;2023-01-28T01:22:08;94893.78;;;3.32;100.00
18167;BME280;9208;42.688;23.404;2023-01-28T01:24:33;94894.09;;;3.34;100.00
18167;BME280;9208;42.688;23.404;2023-01-28T01:26:59;94902.53;;;3.36;100.00
18167;BME280;9208;42.688;23.404;2023-01-28T01:29:24;94896.38;;;3.36;100.00
18167;BME280;9208;42.688;23.404;2023-01-28T01:31:50;94899.53;;;3.34;100.00
18167;BME280;9208;42.688;23.404;2023-01-28T01:34:15;94897.56;;;3.35;100.00
18167;BME280;9208;42.688;23.404;2023-01-28T01:36:41;94903.28;;;3.37;100.00
18167;BME280;9208;42.688;23.404;2023-01-28T01:39:10;94901.03;;;3.35;100.00
18167;BME280;9208;42.688;23.404;2023-01-28T01:41:36;94911.88;;;3.35;100.00
18167;BME280;9208;42.688;23.404;2023-01-28T01:44:03;94907.06;;;3.39;100.00
18167;BME280;9208;42.688;23.404;2023-01-28T01:46:36;94906.00;;;3.37;100.00
18167;BME280;9208;42.688;23.404;2023-01-28T01:51:37;94904.31;;;3.30;100.00
18167;BME280;9208;42.688;23.404;2023-01-28T01:54:03;94904.00;;;3.28;100.00
18167;BME280;9208;42.688;23.404;2023-01-28T01:56:32;94904.19;;;3.34;100.00
18167;BME280;9208;42.688;23.404;2023-01-28T01:58:59;94898.47;;;3.32;100.00
18167;BME280;9208;42.688;23.404;2023-01-28T02:01:28;94908.84;;;3.33;100.00
18167;BME280;9208;42.688;23.404;2023-01-28T02:04:06;94911.38;;;3.28;100.00
18167;BME280;9208;42.688;23.404;2023-01-28T02:06:33;94911.22;;;3.31;100.00
18167;BME280;9208;42.688;23.404;2023-01-28T02:08:59;94915.44;;;3.32;100.00
18167;BME280;9208;42.688;23.404;2023-01-28T02:11:27;94918.03;;;3.36;100.00
18167;BME280;9208;42.688;23.404;2023-01-28T02:13:57;94919.22;;;3.35;100.00
18167;BME280;9208;42.688;23.404;2023-01-28T02:16:24;94911.50;;;3.24;100.00
18167;BME280;9208;42.688;23.404;2023-01-28T02:18:50;94924.59;;;3.26;100.00
18167;BME280;9208;42.688;23.404;2023-01-28T02:21:42;94920.25;;;3.28;100.00
18167;BME280;9208;42.688;23.404;2023-01-28T02:24:44;94924.59;;;3.26;100.00
18167;BME280;9208;42.688;23.404;2023-01-28T02:27:28;94926.13;;;3.27;100.00
18167;BME280;9208;42.688;23.404;2023-01-28T02:30:06;94921.09;;;3.16;100.00
18167;BME280;9208;42.688;23.404;2023-01-28T02:35:12;94923.66;;;3.20;100.00
18167;BME280;9208;42.688;23.404;2023-01-28T02:37:46;94925.63;;;3.19;100.00
18167;BME280;9208;42.688;23.404;2023-01-28T02:40:29;94928.16;;;3.14;100.00
18167;BME280;9208;42.688;23.404;2023-01-28T02:42:56;94929.06;;;3.20;100.00
18167;BME280;9208;42.688;23.404;2023-01-28T02:45:31;94925.00;;;3.15;100.00
18167;BME280;9208;42.688;23.404;2023-01-28T02:48:35;94935.84;;;3.15;100.00
18167;BME280;9208;42.688;23.404;2023-01-28T02:51:09;94927.56;;;3.19;100.00
18167;BME280;9208;42.688;23.404;2023-01-28T02:54:16;94929.84;;;3.20;100.00
18167;BME280;9208;42.688;23.404;2023-01-28T02:59:41;94919.44;;;3.19;100.00
18167;BME280;9208;42.688;23.404;2023-01-28T03:02:41;94931.59;;;3.14;100.00
18167;BME280;9208;42.688;23.404;2023-01-28T03:05:16;94923.66;;;3.20;100.00
18167;BME280;9208;42.688;23.404;2023-01-28T03:07:45;94923.66;;;3.20;100.00
18167;BME280;9208;42.688;23.404;2023-01-28T03:10:13;94922.91;;;3.19;100.00
18167;BME280;9208;42.688;23.404;2023-01-28T03:12:42;94930.59;;;3.21;100.00
18167;BME280;9208;42.688;23.404;2023-01-28T03:15:31;94930.59;;;3.21;100.00
18167;BME280;9208;42.688;23.404;2023-01-28T03:18:31;94931.59;;;3.14;100.00
18167;BME280;9208;42.688;23.404;2023-01-28T03:21:26;94934.94;;;3.18;100.00
18167;BME280;9208;42.688;23.404;2023-01-28T03:24:41;94941.69;;;3.14;100.00
18167;BME280;9208;42.688;23.404;2023-01-28T03:27:46;94940.19;;;3.13;100.00
18167;BME280;9208;42.688;23.404;2023-01-28T03:30:41;94938.22;;;3.13;100.00
18167;BME280;9208;42.688;23.404;2023-01-28T03:33:26;94937.78;;;3.15;100.00
18167;BME280;9208;42.688;23.404;2023-01-28T03:36:11;94938.97;;;3.14;100.00
18167;BME280;9208;42.688;23.404;2023-01-28T03:38:55;94947.09;;;3.14;100.00
18167;BME280;9208;42.688;23.404;2023-01-28T03:41:22;94941.25;;;3.15;100.00
18167;BME280;9208;42.688;23.404;2023-01-28T03:43:48;94943.38;;;3.20;100.00
18167;BME280;9208;42.688;23.404;2023-01-28T03:46:15;94942.88;;;3.13;100.00
18167;BME280;9208;42.688;23.404;2023-01-28T03:48:41;94945.25;;;3.11;100.00
18167;BME280;9208;42.688;23.404;2023-01-28T03:51:06;94944.53;;;3.10;100.00
18167;BME280;9208;42.688;23.404;2023-01-28T03:53:32;94947.53;;;3.12;100.00
18167;BME280;9208;42.688;23.404;2023-01-28T03:55:57;94951.44;;;3.11;100.00
18167;BME280;9208;42.688;23.404;2023-01-28T03:58:23;94953.25;;;3.14;100.00
18167;BME280;9208;42.688;23.404;2023-01-28T04:01:04;94961.50;;;3.11;100.00
18167;BME280;9208;42.688;23.404;2023-01-28T04:03:29;94958.44;;;3.00;100.00
18167;BME280;9208;42.688;23.404;2023-01-28T04:05:59;94954.25;;;3.08;100.00
18167;BME280;9208;42.688;23.404;2023-01-28T04:08:25;94967.50;;;3.06;100.00
18167;BME280;9208;42.688;23.404;2023-01-28T04:10:51;94954.53;;;3.01;100.00
18167;BME280;9208;42.688;23.404;2023-01-28T04:13:17;94963.09;;;2.99;100.00
18167;BME280;9208;42.688;23.404;2023-01-28T04:15:43;94967.28;;;3.00;100.00
18167;BME280;9208;42.688;23.404;2023-01-28T04:18:10;94968.84;;;3.01;100.00
18167;BME280;9208;42.688;23.404;2023-01-28T04:20:36;94969.56;;;3.02;100.00
18167;BME280;9208;42.688;23.404;2023-01-28T04:23:02;94965.03;;;2.99;100.00
18167;BME280;9208;42.688;23.404;2023-01-28T04:25:28;94965.16;;;2.95;100.00
18167;BME280;9208;42.688;23.404;2023-01-28T04:27:53;94979.03;;;2.97;100.00
18167;BME280;9208;42.688;23.404;2023-01-28T04:30:19;94971.97;;;3.00;100.00
18167;BME280;9208;42.688;23.404;2023-01-28T04:32:45;94980.03;;;2.91;100.00
18167;BME280;9208;42.688;23.404;2023-01-28T04:35:11;94977.97;;;2.95;100.00
18167;BME280;9208;42.688;23.404;2023-01-28T04:37:37;94977.97;;;2.95;100.00
18167;BME280;9208;42.688;23.404;2023-01-28T04:40:02;94985.94;;;2.98;100.00
18167;BME280;9208;42.688;23.404;2023-01-28T04:42:28;94988.66;;;2.98;100.00
18167;BME280;9208;42.688;23.404;2023-01-28T04:44:56;94997.66;;;2.95;100.00
18167;BME280;9208;42.688;23.404;2023-01-28T04:47:22;94988.88;;;2.91;100.00
18167;BME280;9208;42.688;23.404;2023-01-28T04:49:47;94989.31;;;2.90;100.00
18167;BME280;9208;42.688;23.404;2023-01-28T04:52:12;95001.69;;;2.91;100.00
18167;BME280;9208;42.688;23.404;2023-01-28T04:54:38;94999.63;;;2.95;100.00
18167;BME280;9208;42.688;23.404;2023-01-28T04:57:03;95001.69;;;2.91;100.00
18167;BME280;9208;42.688;23.404;2023-01-28T04:59:28;95006.09;;;2.97;100.00
18167;BME280;9208;42.688;23.404;2023-01-28T05:01:54;95010.88;;;2.93;100.00
18167;BME280;9208;42.688;23.404;2023-01-28T05:04:19;95002.25;;;2.86;100.00
18167;BME280;9208;42.688;23.404;2023-01-28T05:06:45;95009.03;;;2.90;100.00
18167;BME280;9208;42.688;23.404;2023-01-28T05:09:11;95011.19;;;2.95;100.00
18167;BME280;9208;42.688;23.404;2023-01-28T05:11:36;95010.97;;;2.90;100.00
18167;BME280;9208;42.688;23.404;2023-01-28T05:14:02;95015.22;;;2.91;100.00
18167;BME280;9208;42.688;23.404;2023-01-28T05:16:27;95016.84;;;2.88;100.00
18167;BME280;9208;42.688;23.404;2023-01-28T05:18:53;95016.22;;;2.84;100.00
18167;BME280;9208;42.688;23.404;2023-01-28T05:21:18;95014.72;;;2.83;100.00
18167;BME280;9208;42.688;23.404;2023-01-28T05:23:44;95024.34;;;2.84;100.00
18167;BME280;9208;42.688;23.404;2023-01-28T05:26:09;95026.53;;;2.77;100.00
18167;BME280;9208;42.688;23.404;2023-01-28T05:28:35;95017.75;;;2.73;100.00
18167;BME280;9208;42.688;23.404;2023-01-28T05:31:05;95026.19;;;2.75;100.00
18167;BME280;9208;42.688;23.404;2023-01-28T05:33:31;95021.53;;;2.75;100.00
18167;BME280;9208;42.688;23.404;2023-01-28T05:35:56;95024.59;;;2.65;100.00
18167;BME280;9208;42.688;23.404;2023-01-28T05:38:22;95024.34;;;2.72;100.00
18167;BME280;9208;42.688;23.404;2023-01-28T05:40:47;95026.75;;;2.70;100.00
18167;BME280;9208;42.688;23.404;2023-01-28T05:43:13;95033.22;;;2.72;100.00
18167;BME280;9208;42.688;23.404;2023-01-28T05:45:39;95030.88;;;2.74;100.00
18167;BME280;9208;42.688;23.404;2023-01-28T05:48:05;95034.00;;;2.73;100.00
18167;BME280;9208;42.688;23.404;2023-01-28T05:50:30;95032.38;;;2.75;100.00
18167;BME280;9208;42.688;23.404;2023-01-28T05:52:56;95042.56;;;2.71;100.00
18167;BME280;9208;42.688;23.404;2023-01-28T05:55:21;95037.88;;;2.72;100.00
18167;BME280;9208;42.688;23.404;2023-01-28T05:57:47;95045.34;;;2.80;100.00
18167;BME280;9208;42.688;23.404;2023-01-28T06:00:13;95045.00;;;2.78;100.00
18167;BME280;9208;42.688;23.404;2023-01-28T06:02:40;95046.84;;;2.81;100.00
18167;BME280;9208;42.688;23.404;2023-01-28T06:05:06;95055.19;;;2.87;100.00
18167;BME280;9208;42.688;23.404;2023-01-28T06:07:32;95060.59;;;2.87;100.00
18167;BME280;9208;42.688;23.404;2023-01-28T06:09:57;95069.47;;;2.87;100.00
18167;BME280;9208;42.688;23.404;2023-01-28T06:12:23;95067.75;;;2.81;100.00
18167;BME280;9208;42.688;23.404;2023-01-28T06:14:49;95074.13;;;2.87;100.00
18167;BME280;9208;42.688;23.404;2023-01-28T06:17:14;95074.00;;;2.90;100.00
18167;BME280;9208;42.688;23.404;2023-01-28T06:19:40;95082.69;;;2.85;100.00
18167;BME280;9208;42.688;23.404;2023-01-28T06:22:06;95080.75;;;2.86;100.00
18167;BME280;9208;42.688;23.404;2023-01-28T06:24:31;95095.22;;;2.92;100.00
18167;BME280;9208;42.688;23.404;2023-01-28T06:26:57;95089.06;;;2.91;100.00
18167;BME280;9208;42.688;23.404;2023-01-28T06:29:22;95099.56;;;2.89;100.00
18167;BME280;9208;42.688;23.404;2023-01-28T06:31:48;95101.19;;;2.87;100.00
18167;BME280;9208;42.688;23.404;2023-01-28T06:34:13;95103.38;;;2.79;100.00
18167;BME280;9208;42.688;23.404;2023-01-28T06:36:39;95100.44;;;2.86;100.00
18167;BME280;9208;42.688;23.404;2023-01-28T06:39:05;95099.03;;;2.82;100.00
18167;BME280;9208;42.688;23.404;2023-01-28T06:41:30;95092.47;;;2.70;100.00
18167;BME280;9208;42.688;23.404;2023-01-28T06:43:56;95107.38;;;2.75;100.00
18167;BME280;9208;42.688;23.404;2023-01-28T06:46:21;95107.25;;;2.78;100.00
18167;BME280;9208;42.688;23.404;2023-01-28T06:48:47;95110.94;;;2.72;100.00
18167;BME280;9208;42.688;23.404;2023-01-28T06:51:12;95116.59;;;2.77;100.00
18167;BME280;9208;42.688;23.404;2023-01-28T06:53:37;95115.06;;;2.76;100.00
18167;BME280;9208;42.688;23.404;2023-01-28T06:56:03;95115.94;;;2.73;100.00
18167;BME280;9208;42.688;23.404;2023-01-28T06:58:29;95119.84;;;2.72;100.00
18167;BME280;9208;42.688;23.404;2023-01-28T07:00:54;95127.41;;;2.77;100.00
18167;BME280;9208;42.688;23.404;2023-01-28T07:03:20;95128.28;;;2.74;100.00
18167;BME280;9208;42.688;23.404;2023-01-28T07:05:45;95130.00;;;2.81;100.00
18167;BME280;9208;42.688;23.404;2023-01-28T07:08:11;95131.75;;;2.75;100.00
18167;BME280;9208;42.688;23.404;2023-01-28T07:10:36;95136.50;;;2.83;100.00
18167;BME280;9208;42.688;23.404;2023-01-28T07:13:02;95149.41;;;2.79;100.00
18167;BME280;9208;42.688;23.404;2023-01-28T07:15:28;95144.94;;;2.85;100.00
18167;BME280;9208;42.688;23.404;2023-01-28T07:17:53;95153.84;;;2.86;100.00
18167;BME280;9208;42.688;23.404;2023-01-28T07:20:19;95149.94;;;2.87;100.00
18167;BME280;9208;42.688;23.404;2023-01-28T07:22:45;95157.63;;;2.88;100.00
18167;BME280;9208;42.688;23.404;2023-01-28T07:25:11;95156.41;;;2.89;100.00
18167;BME280;9208;42.688;23.404;2023-01-28T07:27:37;95155.78;;;2.85;100.00
18167;BME280;9208;42.688;23.404;2023-01-28T07:30:03;95160.88;;;2.83;100.00
18167;BME280;9208;42.688;23.404;2023-01-28T07:32:30;95169.00;;;2.83;100.00
18167;BME280;9208;42.688;23.404;2023-01-28T07:34:55;95167.56;;;2.91;100.00
18167;BME280;9208;42.688;23.404;2023-01-28T07:37:21;95170.19;;;2.95;100.00
18167;BME280;9208;42.688;23.404;2023-01-28T07:39:46;95178.50;;;2.88;100.00
18167;BME280;9208;42.688;23.404;2023-01-28T07:42:11;95174.41;;;2.83;100.00
18167;BME280;9208;42.688;23.404;2023-01-28T07:44:37;95172.44;;;2.84;100.00
18167;BME280;9208;42.688;23.404;2023-01-28T07:47:04;95178.81;;;2.90;100.00
18167;BME280;9208;42.688;23.404;2023-01-28T07:49:29;95180.25;;;2.94;100.00
18167;BME280;9208;42.688;23.404;2023-01-28T07:51:55;95183.25;;;2.96;100.00
18167;BME280;9208;42.688;23.404;2023-01-28T07:54:20;95195.28;;;2.95;100.00
18167;BME280;9208;42.688;23.404;2023-01-28T07:56:46;95183.16;;;3.00;100.00
18167;BME280;9208;42.688;23.404;2023-01-28T07:59:11;95187.69;;;3.03;100.00
18167;BME280;9208;42.688;23.404;2023-01-28T08:01:40;95192.56;;;3.08;100.00
18167;BME280;9208;42.688;23.404;2023-01-28T08:04:05;95187.81;;;2.99;100.00
18167;BME280;9208;42.688;23.404;2023-01-28T08:06:31;95195.50;;;3.01;100.00
18167;BME280;9208;42.688;23.404;2023-01-28T08:09:05;95194.84;;;2.97;100.00
18167;BME280;9208;42.688;23.404;2023-01-28T08:11:32;95194.09;;;2.96;100.00
18167;BME280;9208;42.688;23.404;2023-01-28T08:13:58;95200.25;;;2.97;100.00
18167;BME280;9208;42.688;23.404;2023-01-28T08:16:24;95200.78;;;3.04;100.00
18167;BME280;9208;42.688;23.404;2023-01-28T08:18:49;95201.44;;;3.08;100.00
18167;BME280;9208;42.688;23.404;2023-01-28T08:21:15;95204.03;;;3.12;100.00
18167;BME280;9208;42.688;23.404;2023-01-28T08:23:40;95200.69;;;3.08;100.00
18167;BME280;9208;42.688;23.404;2023-01-28T08:26:06;95205.47;;;3.04;100.00
18167;BME280;9208;42.688;23.404;2023-01-28T08:28:31;95203.19;;;3.02;100.00
18167;BME280;9208;42.688;23.404;2023-01-28T08:30:59;95206.09;;;3.08;100.00
18167;BME280;9208;42.688;23.404;2023-01-28T08:33:25;95206.09;;;3.08;100.00
18167;BME280;9208;42.688;23.404;2023-01-28T08:35:50;95207.72;;;3.05;100.00
18167;BME280;9208;42.688;23.404;2023-01-28T08:38:15;95203.59;;;3.13;100.00
18167;BME280;9208;42.688;23.404;2023-01-28T08:40:42;95211.63;;;3.04;100.00
18167;BME280;9208;42.688;23.404;2023-01-28T08:43:07;95207.19;;;3.10;100.00
18167;BME280;9208;42.688;23.404;2023-01-28T08:45:33;95211.72;;;3.13;100.00
18167;BME280;9208;42.688;23.404;2023-01-28T08:48:01;95214.31;;;3.17;100.00
18167;BME280;9208;42.688;23.404;2023-01-28T08:50:29;95213.88;;;3.18;100.00
18167;BME280;9208;42.688;23.404;2023-01-28T08:53:02;95218.34;;;3.12;100.00
18167;BME280;9208;42.688;23.404;2023-01-28T08:55:28;95217.25;;;3.22;100.00
18167;BME280;9208;42.688;23.404;2023-01-28T08:57:53;95215.63;;;3.25;100.00
18167;BME280;9208;42.688;23.404;2023-01-28T09:00:19;95223.53;;;3.32;100.00
18167;BME280;9208;42.688;23.404;2023-01-28T09:02:45;95225.91;;;3.30;100.00
18167;BME280;9208;42.688;23.404;2023-01-28T09:05:11;95221.56;;;3.32;100.00
18167;BME280;9208;42.688;23.404;2023-01-28T09:07:37;95222.44;;;3.29;100.00
18167;BME280;9208;42.688;23.404;2023-01-28T09:10:04;95228.59;;;3.30;100.00
18167;BME280;9208;42.688;23.404;2023-01-28T09:12:30;95221.56;;;3.32;100.00
18167;BME280;9208;42.688;23.404;2023-01-28T09:14:55;95225.47;;;3.31;100.00
18167;BME280;9208;42.688;23.404;2023-01-28T09:17:21;95226.13;;;3.35;100.00
18167;BME280;9208;42.688;23.404;2023-01-28T09:19:46;95227.09;;;3.29;100.00
18167;BME280;9208;42.688;23.404;2023-01-28T09:22:12;95232.41;;;3.32;100.00
18167;BME280;9208;42.688;23.404;2023-01-28T09:24:37;95227.22;;;3.25;100.00
18167;BME280;9208;42.688;23.404;2023-01-28T09:27:03;95230.47;;;3.20;100.00
18167;BME280;9208;42.688;23.404;2023-01-28T09:29:28;95224.09;;;3.27;100.00
18167;BME280;9208;42.688;23.404;2023-01-28T09:31:54;95225.25;;;3.26;100.00
18167;BME280;9208;42.688;23.404;2023-01-28T09:34:19;95233.50;;;3.22;100.00
18167;BME280;9208;42.688;23.404;2023-01-28T09:36:45;95222.66;;;3.22;100.00
18167;BME280;9208;42.688;23.404;2023-01-28T09:39:10;95221.81;;;3.25;100.00
18167;BME280;9208;42.688;23.404;2023-01-28T09:41:53;95227.34;;;3.22;100.00
18167;BME280;9208;42.688;23.404;2023-01-28T09:47:16;95224.81;;;3.27;100.00
18167;BME280;9208;42.688;23.404;2023-01-28T09:49:49;95224.09;;;3.27;100.00
18167;BME280;9208;42.688;23.404;2023-01-28T09:52:17;95225.06;;;3.20;100.00
18167;BME280;9208;42.688;23.404;2023-01-28T09:57:51;95226.47;;;3.12;100.00
18167;BME280;9208;42.688;23.404;2023-01-28T10:00:20;95218.56;;;3.05;100.00
18167;BME280;9208;42.688;23.404;2023-01-28T10:05:41;95219.84;;;3.13;100.00
18167;BME280;9208;42.688;23.404;2023-01-28T10:13:51;95221.59;;;3.07;100.00
18167;BME280;9208;42.688;23.404;2023-01-28T10:16:45;95216.94;;;3.08;100.00
18167;BME280;9208;42.688;23.404;2023-01-28T10:19:26;95217.16;;;3.13;100.00
18167;BME280;9208;42.688;23.404;2023-01-28T10:21:58;95210.44;;;3.18;100.00
18167;BME280;9208;42.688;23.404;2023-01-28T10:24:33;95222.00;;;3.18;100.00
18167;BME280;9208;42.688;23.404;2023-01-28T10:27:00;95213.88;;;3.18;100.00
18167;BME280;9208;42.688;23.404;2023-01-28T10:29:32;95218.00;;;3.23;100.00
18167;BME280;9208;42.688;23.404;2023-01-28T10:32:05;95223.31;;;3.26;100.00
18167;BME280;9208;42.688;23.404;2023-01-28T10:34:38;95216.03;;;3.23;100.00
18167;BME280;9208;42.688;23.404;2023-01-28T10:37:03;95212.81;;;3.28;100.00
18167;BME280;9208;42.688;23.404;2023-01-28T10:39:29;95221.47;;;3.36;100.00
18167;BME280;9208;42.688;23.404;2023-01-28T10:41:55;95220.56;;;3.39;100.00
18167;BME280;9208;42.688;23.404;2023-01-28T10:44:49;95225.00;;;3.45;100.00
18167;BME280;9208;42.688;23.404;2023-01-28T10:47:30;95218.63;;;3.39;100.00
18167;BME280;9208;42.688;23.404;2023-01-28T10:49:58;95213.22;;;3.39;100.00
18167;BME280;9208;42.688;23.404;2023-01-28T10:52:25;95210.38;;;3.43;100.00
18167;BME280;9208;42.688;23.404;2023-01-28T10:55:01;95217.66;;;3.46;100.00
18167;BME280;9208;42.688;23.404;2023-01-28T10:57:27;95216.22;;;3.54;100.00
18167;BME280;9208;42.688;23.404;2023-01-28T10:59:53;95210.47;;;3.52;100.00
18167;BME280;9208;42.688;23.404;2023-01-28T11:02:28;95216.09;;;3.57;100.00
18167;BME280;9208;42.688;23.404;2023-01-28T11:05:16;95215.78;;;3.55;100.00
18167;BME280;9208;42.688;23.404;2023-01-28T11:07:43;95211.66;;;3.51;100.00
18167;BME280;9208;42.688;23.404;2023-01-28T11:10:31;95217.31;;;3.56;100.00
18167;BME280;9208;42.688;23.404;2023-01-28T11:13:00;95223.25;;;3.64;100.00
18167;BME280;9208;42.688;23.404;2023-01-28T11:15:26;95218.88;;;3.66;100.00
18167;BME280;9208;42.688;23.404;2023-01-28T11:18:04;95210.63;;;3.70;100.00
18167;BME280;9208;42.688;23.404;2023-01-28T11:20:41;95214.75;;;3.74;100.00
18167;BME280;9208;42.688;23.404;2023-01-28T11:23:28;95201.38;;;3.80;100.00
18167;BME280;9208;42.688;23.404;2023-01-28T11:26:05;95212.22;;;3.80;100.00
18167;BME280;9208;42.688;23.404;2023-01-28T11:28:32;95204.41;;;3.82;100.00
18167;BME280;9208;42.688;23.404;2023-01-28T11:31:00;95199.44;;;3.80;100.00
18167;BME280;9208;42.688;23.404;2023-01-28T11:33:36;95215.25;;;3.82;100.00
18167;BME280;9208;42.688;23.404;2023-01-28T11:36:06;95200.94;;;3.81;100.00
18167;BME280;9208;42.688;23.404;2023-01-28T11:38:33;95201.63;;;3.73;100.00
18167;BME280;9208;42.688;23.404;2023-01-28T11:40:59;95203.00;;;3.77;100.00
18167;BME280;9208;42.688;23.404;2023-01-28T11:43:29;95205.84;;;3.74;100.00
18167;BME280;9208;42.688;23.404;2023-01-28T11:55:07;95203.22;;;3.83;100.00
18167;BME280;9208;42.688;23.404;2023-01-28T12:00:08;95203.63;;;3.94;100.00
18167;BME280;9208;42.688;23.404;2023-01-28T12:08:04;95199.44;;;4.02;100.00
18167;BME280;9208;42.688;23.404;2023-01-28T12:16:39;95199.00;;;4.03;100.00
18167;BME280;9208;42.688;23.404;2023-01-28T12:19:24;95201.53;;;3.98;100.00
18167;BME280;9208;42.688;23.404;2023-01-28T12:27:54;95201.97;;;3.96;100.00
18167;BME280;9208;42.688;23.404;2023-01-28T12:38:38;95204.44;;;4.03;100.00
18167;BME280;9208;42.688;23.404;2023-01-28T12:41:10;95210.06;;;4.09;100.00
18167;BME280;9208;42.688;23.404;2023-01-28T12:44:02;95209.91;;;4.12;100.00
18167;BME280;9208;42.688;23.404;2023-01-28T12:49:04;95219.56;;;4.13;100.00
18167;BME280;9208;42.688;23.404;2023-01-28T12:54:25;95223.91;;;4.11;100.00
18167;BME280;9208;42.688;23.404;2023-01-28T12:56:54;95218.69;;;4.16;100.00
18167;BME280;9208;42.688;23.404;2023-01-28T12:59:28;95230.88;;;4.12;100.00
18167;BME280;9208;42.688;23.404;2023-01-28T13:02:03;95229.34;;;4.11;100.00
18167;BME280;9208;42.688;23.404;2023-01-28T13:05:04;95229.41;;;3.98;100.00
18167;BME280;9208;42.688;23.404;2023-01-28T13:07:40;95230.34;;;4.04;100.00
18167;BME280;9208;42.688;23.404;2023-01-28T13:13:02;95233.59;;;4.12;100.00
18167;BME280;9208;42.688;23.404;2023-01-28T13:15:28;95234.34;;;4.12;100.00
18167;BME280;9208;42.688;23.404;2023-01-28T13:18:02;95239.44;;;4.10;100.00
18167;BME280;9208;42.688;23.404;2023-01-28T13:20:46;95240.75;;;4.06;100.00
18167;BME280;9208;42.688;23.404;2023-01-28T13:28:48;95245.28;;;3.87;100.00
18167;BME280;9208;42.688;23.404;2023-01-28T13:31:16;95247.44;;;3.92;100.00
18167;BME280;9208;42.688;23.404;2023-01-28T13:33:46;95252.59;;;3.99;100.00
18167;BME280;9208;42.688;23.404;2023-01-28T13:36:27;95250.97;;;4.02;100.00
18167;BME280;9208;42.688;23.404;2023-01-28T13:41:45;95255.94;;;4.16;100.00
18167;BME280;9208;42.688;23.404;2023-01-28T13:44:31;95254.34;;;4.27;100.00
18167;BME280;9208;42.688;23.404;2023-01-28T13:47:17;95261.09;;;4.23;100.00
18167;BME280;9208;42.688;23.404;2023-01-28T13:49:57;95263.69;;;4.26;100.00
18167;BME280;9208;42.688;23.404;2023-01-28T13:52:35;95259.59;;;4.22;100.00
18167;BME280;9208;42.688;23.404;2023-01-28T13:55:23;95273.81;;;4.13;100.00
18167;BME280;9208;42.688;23.404;2023-01-28T14:09:41;95286.22;;;4.02;100.00
18167;BME280;9208;42.688;23.404;2023-01-28T14:15:02;95291.03;;;3.98;100.00
18167;BME280;9208;42.688;23.404;2023-01-28T14:17:41;95295.91;;;4.03;100.00
18167;BME280;9208;42.688;23.404;2023-01-28T14:20:17;95293.75;;;3.98;100.00
18167;BME280;9208;42.688;23.404;2023-01-28T14:22:44;95298.72;;;3.99;100.00
18167;BME280;9208;42.688;23.404;2023-01-28T14:25:26;95305.22;;;4.02;100.00
18167;BME280;9208;42.688;23.404;2023-01-28T14:28:00;95301.00;;;4.01;100.00
18167;BME280;9208;42.688;23.404;2023-01-28T14:30:42;95308.25;;;4.04;100.00
18167;BME280;9208;42.688;23.404;2023-01-28T14:33:11;95320.31;;;4.03;100.00
18167;BME280;9208;42.688;23.404;2023-01-28T14:35:38;95320.31;;;4.03;100.00
18167;BME280;9208;42.688;23.404;2023-01-28T14:38:12;95311.63;;;3.95;100.00
18167;BME280;9208;42.688;23.404;2023-01-28T14:40:39;95311.84;;;4.01;100.00
18167;BME280;9208;42.688;23.404;2023-01-28T14:43:07;95315.31;;;4.01;100.00
18167;BME280;9208;42.688;23.404;2023-01-28T14:46:29;95326.16;;;4.01;100.00